createdAt,value
2022-08-05T00:00:19.708Z,19.01
2022-08-05T00:03:06.065Z,18.95
2022-08-05T00:06:06.487Z,18.91
2022-08-05T00:08:34.865Z,18.86
2022-08-05T00:11:20.564Z,18.81
2022-08-05T00:13:56.461Z,18.81
2022-08-05T00:16:35.564Z,18.79
2022-08-05T00:19:06.017Z,18.68
2022-08-05T00:21:35.614Z,18.66
2022-08-05T00:24:10.991Z,18.68
2022-08-05T00:26:51.978Z,18.66
2022-08-05T00:29:22.747Z,18.67
2022-08-05T00:32:13.385Z,18.68
2022-08-05T00:35:03.807Z,18.66
2022-08-05T00:38:09.365Z,18.59
2022-08-05T00:40:51.784Z,18.55
2022-08-05T00:43:22.641Z,18.51
2022-08-05T00:45:53.420Z,18.47
2022-08-05T00:48:50.254Z,18.45
2022-08-05T00:51:50.751Z,18.42
2022-08-05T00:54:15.071Z,18.39
2022-08-05T00:56:51.588Z,18.33
2022-08-05T00:59:20.280Z,18.30
2022-08-05T01:01:49.387Z,18.26
2022-08-05T01:04:20.254Z,18.23
2022-08-05T01:06:55.653Z,18.17
2022-08-05T01:09:24.228Z,18.14
2022-08-05T01:12:18.075Z,18.07
2022-08-05T01:15:35.616Z,18.07
2022-08-05T01:18:10.100Z,18.06
2022-08-05T01:21:26.014Z,18.01
2022-08-05T01:24:40.984Z,17.93
2022-08-05T01:27:55.397Z,17.85
2022-08-05T01:30:34.271Z,17.78
2022-08-05T01:33:10.264Z,17.78
2022-08-05T01:35:50.709Z,17.69
2022-08-05T01:38:27.332Z,17.65
2022-08-05T01:41:01.403Z,17.65
2022-08-05T01:43:34.774Z,17.64
2022-08-05T01:46:07.276Z,17.57
2022-08-05T01:48:55.772Z,17.52
2022-08-05T01:51:25.506Z,17.51
2022-08-05T01:54:02.173Z,17.47
2022-08-05T01:58:10.036Z,17.40
2022-08-05T02:02:20.565Z,17.39
2022-08-05T02:05:05.336Z,17.37
2022-08-05T02:07:47.286Z,17.39
2022-08-05T02:10:35.509Z,17.37
2022-08-05T02:13:17.686Z,17.36
2022-08-05T02:15:54.499Z,17.31
2022-08-05T02:18:35.425Z,17.32
2022-08-05T02:21:15.134Z,17.29
2022-08-05T02:23:49.247Z,17.24
2022-08-05T02:26:26.722Z,17.20
2022-08-05T02:28:58.120Z,17.17
2022-08-05T02:31:34.884Z,17.15
2022-08-05T02:34:09.198Z,17.17
2022-08-05T02:36:52.790Z,17.16
2022-08-05T02:39:23.683Z,17.17
2022-08-05T02:41:58.164Z,17.19
2022-08-05T02:44:32.586Z,17.20
2022-08-05T02:47:02.127Z,17.19
2022-08-05T02:49:37.895Z,17.17
2022-08-05T02:52:29.652Z,17.14
2022-08-05T02:55:05.565Z,17.09
2022-08-05T02:58:10.568Z,17.09
2022-08-05T03:00:29.712Z,17.04
2022-08-05T03:03:00.519Z,17.02
2022-08-05T03:06:55.096Z,17.02
2022-08-05T03:08:27.157Z,17.02
2022-08-05T03:11:53.166Z,17.04
2022-08-05T03:14:02.775Z,17.05
2022-08-05T03:16:32.305Z,17.08
2022-08-05T03:19:08.772Z,17.09
2022-08-05T03:21:49.473Z,17.07
2022-08-05T03:24:29.456Z,17.05
2022-08-05T03:27:01.485Z,17.00
2022-08-05T03:29:44.661Z,17.02
2022-08-05T03:32:19.756Z,17.01
2022-08-05T03:34:51.139Z,17.01
2022-08-05T03:37:23.736Z,16.98
2022-08-05T03:40:04.037Z,16.96
2022-08-05T03:42:51.501Z,16.92
2022-08-05T03:45:23.397Z,16.92
2022-08-05T03:47:56.962Z,16.92
2022-08-05T03:50:36.295Z,16.91
2022-08-05T03:55:00.365Z,16.95
2022-08-05T03:56:31.891Z,16.94
2022-08-05T03:59:20.218Z,16.90
2022-08-05T04:01:51.357Z,16.83
2022-08-05T04:04:21.779Z,16.81
2022-08-05T04:07:09.124Z,16.78
2022-08-05T04:09:38.155Z,16.80
2022-08-05T04:12:24.391Z,16.79
2022-08-05T04:14:54.459Z,16.81
2022-08-05T04:17:55.511Z,16.82
2022-08-05T04:20:23.219Z,16.87
2022-08-05T04:22:51.648Z,16.93
2022-08-05T04:25:24.171Z,16.96
2022-08-05T04:28:12.759Z,17.00
2022-08-05T04:30:42.948Z,17.05
2022-08-05T04:33:15.292Z,17.02
2022-08-05T04:36:16.764Z,17.05
2022-08-05T04:38:39.849Z,17.07
2022-08-05T04:41:10.171Z,17.03
2022-08-05T04:43:46.581Z,17.04
2022-08-05T04:46:30.125Z,17.08
2022-08-05T04:48:59.891Z,17.18
2022-08-05T04:51:30.544Z,17.26
2022-08-05T04:54:01.309Z,17.34
2022-08-05T04:56:34.828Z,17.40
2022-08-05T04:59:21.437Z,17.48
2022-08-05T05:02:07.671Z,17.55
2022-08-05T05:04:47.804Z,17.63
2022-08-05T05:07:18.774Z,17.72
2022-08-05T05:09:58.165Z,17.78
2022-08-05T05:12:27.896Z,17.88
2022-08-05T05:14:56.355Z,17.90
2022-08-05T05:17:56.929Z,17.96
2022-08-05T05:20:14.651Z,18.02
2022-08-05T05:22:44.102Z,18.11
2022-08-05T05:25:15.988Z,18.21
2022-08-05T05:27:53.774Z,18.31
2022-08-05T05:30:29.213Z,18.41
2022-08-05T05:33:08.805Z,18.47
2022-08-05T05:35:47.705Z,18.58
2022-08-05T05:38:26.992Z,18.65
2022-08-05T05:40:57.341Z,18.76
2022-08-05T05:43:54.246Z,18.88
2022-08-05T05:46:16.120Z,18.98
2022-08-05T05:48:48.848Z,19.10
2022-08-05T05:51:27.839Z,19.23
2022-08-05T05:53:59.968Z,19.35
2022-08-05T05:56:32.271Z,19.48
2022-08-05T05:59:05.747Z,19.57
2022-08-05T06:01:39.499Z,19.66
2022-08-05T06:06:53.880Z,19.88
2022-08-05T06:09:25.926Z,19.99
2022-08-05T06:12:05.654Z,20.10
2022-08-05T06:14:40.276Z,20.21
2022-08-05T06:17:24.528Z,20.31
2022-08-05T06:19:59.064Z,20.44
2022-08-05T06:22:33.602Z,20.58
2022-08-05T06:25:24.983Z,20.71
2022-08-05T06:28:10.625Z,20.87
2022-08-05T06:30:44.541Z,21.02
2022-08-05T06:33:19.458Z,21.16
2022-08-05T06:36:07.664Z,21.29
2022-08-05T06:38:38.333Z,21.43
2022-08-05T06:41:15.667Z,21.58
2022-08-05T06:43:58.967Z,21.70
2022-08-05T06:46:29.828Z,21.85
2022-08-05T06:49:02.024Z,21.99
2022-08-05T06:51:34.786Z,22.12
2022-08-05T06:54:05.288Z,22.24
2022-08-05T06:56:36.995Z,22.37
2022-08-05T06:59:09.594Z,22.49
2022-08-05T07:01:42.481Z,22.62
2022-08-05T07:04:11.186Z,22.75
2022-08-05T07:06:42.861Z,22.88
2022-08-05T07:09:11.740Z,23.03
2022-08-05T07:11:46.671Z,23.17
2022-08-05T07:14:38.767Z,23.31
2022-08-05T07:18:00.225Z,23.45
2022-08-05T07:22:45.704Z,23.75
2022-08-05T07:25:23.655Z,23.87
2022-08-05T07:28:08.149Z,24.01
2022-08-05T07:30:39.763Z,24.16
2022-08-05T07:33:15.719Z,24.28
2022-08-05T07:36:04.594Z,24.41
2022-08-05T07:38:43.412Z,24.57
2022-08-05T07:42:07.861Z,24.71
2022-08-05T07:44:18.912Z,24.86
2022-08-05T07:46:50.145Z,24.95
2022-08-05T07:49:20.703Z,25.07
2022-08-05T07:51:53.423Z,25.19
2022-08-05T07:54:41.403Z,25.33
2022-08-05T07:57:41.515Z,25.46
2022-08-05T08:00:06.721Z,25.58
2022-08-05T08:03:13.932Z,25.70
2022-08-05T08:05:33.142Z,25.86
2022-08-05T08:08:12.301Z,25.98
2022-08-05T08:10:43.164Z,26.08
2022-08-05T08:13:21.933Z,26.19
2022-08-05T08:16:35.119Z,26.30
2022-08-05T08:18:52.687Z,26.41
2022-08-05T08:21:21.951Z,26.53
2022-08-05T08:24:03.270Z,26.63
2022-08-05T08:26:33.393Z,26.76
2022-08-05T08:29:21.998Z,26.89
2022-08-05T08:31:52.548Z,27.03
2022-08-05T08:34:30.333Z,27.15
2022-08-05T08:37:14.381Z,27.27
2022-08-05T08:39:53.700Z,27.41
2022-08-05T08:42:34.361Z,27.52
2022-08-05T08:45:25.163Z,27.64
2022-08-05T08:48:07.113Z,27.73
2022-08-05T08:51:03.650Z,27.88
2022-08-05T08:53:45.027Z,27.99
2022-08-05T08:56:22.297Z,28.09
2022-08-05T08:58:51.824Z,28.21
2022-08-05T09:01:26.812Z,28.36
2022-08-05T09:04:00.619Z,28.50
2022-08-05T09:06:32.369Z,28.64
2022-08-05T09:09:06.579Z,28.69
2022-08-05T09:11:51.155Z,28.74
2022-08-05T09:14:56.692Z,28.83
2022-08-05T09:17:42.302Z,28.97
2022-08-05T09:20:11.150Z,29.10
2022-08-05T09:23:09.042Z,29.20
2022-08-05T09:26:03.155Z,29.32
2022-08-05T09:28:31.895Z,29.44
2022-08-05T09:31:43.914Z,29.56
2022-08-05T09:34:19.714Z,29.62
2022-08-05T09:36:54.493Z,29.71
2022-08-05T09:39:41.990Z,29.77
2022-08-05T09:42:24.099Z,29.89
2022-08-05T09:45:17.844Z,29.99
2022-08-05T09:47:55.517Z,30.07
2022-08-05T09:50:38.652Z,30.10
2022-08-05T09:53:22.959Z,30.08
2022-08-05T09:56:04.909Z,30.10
2022-08-05T09:58:41.875Z,30.15
2022-08-05T10:01:22.394Z,30.16
2022-08-05T10:04:12.883Z,30.28
2022-08-05T10:07:31.825Z,30.39
2022-08-05T10:10:13.926Z,30.52
2022-08-05T10:12:49.971Z,30.60
2022-08-05T10:15:25.764Z,30.68
2022-08-05T10:18:05.480Z,30.78
2022-08-05T10:20:36.104Z,30.85
2022-08-05T10:23:08.981Z,30.96
2022-08-05T10:26:16.199Z,31.03
2022-08-05T10:28:46.777Z,31.09
2022-08-05T10:32:49.304Z,31.08
2022-08-05T10:34:07.950Z,31.13
2022-08-05T10:36:39.979Z,31.11
2022-08-05T10:39:59.442Z,31.10
2022-08-05T10:42:34.116Z,31.10
2022-08-05T10:45:21.434Z,31.08
2022-08-05T10:48:29.242Z,31.11
2022-08-05T10:51:05.362Z,31.14
2022-08-05T10:53:50.717Z,31.17
2022-08-05T10:56:26.018Z,31.30
2022-08-05T10:58:54.819Z,31.46
2022-08-05T11:01:55.250Z,31.57
2022-08-05T11:04:26.287Z,31.65
2022-08-05T11:06:58.319Z,31.70
2022-08-05T11:09:49.814Z,31.69
2022-08-05T11:12:24.918Z,31.77
2022-08-05T11:15:19.596Z,31.85
2022-08-05T11:17:59.587Z,31.99
2022-08-05T11:20:47.650Z,31.92
2022-08-05T11:24:02.248Z,31.80
2022-08-05T11:26:28.280Z,31.74
2022-08-05T11:29:12.937Z,31.84
2022-08-05T11:31:57.291Z,32.01
2022-08-05T11:34:51.257Z,32.02
2022-08-05T11:38:30.467Z,32.01
2022-08-05T11:41:03.482Z,32.11
2022-08-05T11:44:08.498Z,32.20
2022-08-05T11:47:10.350Z,32.27
2022-08-05T11:49:26.615Z,32.09
2022-08-05T11:51:57.649Z,32.09
2022-08-05T11:54:34.931Z,32.04
2022-08-05T11:57:08.520Z,32.07
2022-08-05T11:59:53.699Z,32.09
2022-08-05T12:02:32.995Z,32.07
2022-08-05T12:05:07.279Z,32.18
2022-08-05T12:08:07.282Z,32.18
2022-08-05T12:10:43.508Z,32.35
2022-08-05T12:13:27.888Z,32.51
2022-08-05T12:16:14.521Z,32.65
2022-08-05T12:18:49.013Z,32.93
2022-08-05T12:21:34.209Z,33.72
2022-08-05T12:24:12.876Z,35.13
2022-08-05T12:26:43.921Z,36.27
2022-08-05T12:29:22.466Z,37.40
2022-08-05T12:31:57.044Z,38.46
2022-08-05T12:34:39.645Z,39.53
2022-08-05T12:37:17.231Z,40.36
2022-08-05T12:39:51.362Z,40.74
2022-08-05T12:42:21.498Z,41.39
2022-08-05T12:45:11.757Z,42.12
2022-08-05T12:47:43.423Z,42.92
2022-08-05T12:50:30.901Z,43.63
2022-08-05T12:53:01.496Z,43.76
2022-08-05T12:55:32.541Z,43.90
2022-08-05T12:58:38.959Z,44.45
2022-08-05T13:02:00.630Z,44.63
2022-08-05T13:03:52.377Z,44.58
2022-08-05T13:06:20.754Z,44.53
2022-08-05T13:08:52.141Z,44.65
2022-08-05T13:12:02.150Z,44.77
2022-08-05T13:14:36.301Z,45.53
2022-08-05T13:17:15.705Z,45.93
2022-08-05T13:19:58.090Z,45.83
2022-08-05T13:22:28.547Z,45.80
2022-08-05T13:25:00.715Z,46.40
2022-08-05T13:27:38.056Z,47.10
2022-08-05T13:30:33.835Z,47.75
2022-08-05T13:33:04.093Z,48.35
2022-08-05T13:35:47.138Z,48.32
2022-08-05T13:38:30.563Z,48.83
2022-08-05T13:41:04.296Z,49.16
2022-08-05T13:43:43.529Z,48.86
2022-08-05T13:46:35.677Z,48.02
2022-08-05T13:49:10.034Z,47.68
2022-08-05T13:52:15.871Z,46.53
2022-08-05T13:54:44.464Z,45.44
2022-08-05T13:57:24.301Z,45.49
2022-08-05T13:59:57.268Z,45.99
2022-08-05T14:02:29.826Z,46.91
2022-08-05T14:05:12.051Z,47.65
2022-08-05T14:08:00.953Z,48.17
2022-08-05T14:10:37.447Z,48.03
2022-08-05T14:13:07.955Z,47.64
2022-08-05T14:16:07.367Z,48.23
2022-08-05T14:18:25.419Z,49.10
2022-08-05T14:20:54.800Z,49.76
2022-08-05T14:23:26.038Z,50.25
2022-08-05T14:26:35.643Z,50.62
2022-08-05T14:29:20.455Z,50.83
2022-08-05T14:32:11.237Z,50.75
2022-08-05T14:34:42.787Z,49.94
2022-08-05T14:37:13.406Z,49.22
2022-08-05T14:39:50.259Z,48.52
2022-08-05T14:42:25.830Z,47.96
2022-08-05T14:44:54.299Z,47.39
2022-08-05T14:48:02.913Z,47.38
2022-08-05T14:50:25.319Z,47.14
2022-08-05T14:52:58.617Z,46.88
2022-08-05T14:55:38.509Z,46.68
2022-08-05T14:58:11.986Z,46.94
2022-08-05T15:00:58.549Z,47.18
2022-08-05T15:03:34.124Z,47.69
2022-08-05T15:06:14.871Z,48.49
2022-08-05T15:09:03.546Z,49.24
2022-08-05T15:11:51.239Z,49.62
2022-08-05T15:14:35.680Z,50.17
2022-08-05T15:17:45.509Z,50.33
2022-08-05T15:19:58.692Z,50.38
2022-08-05T15:22:28.383Z,50.69
2022-08-05T15:24:59.511Z,50.71
2022-08-05T15:27:32.263Z,49.82
2022-08-05T15:30:05.308Z,48.78
2022-08-05T15:32:33.658Z,48.10
2022-08-05T15:35:09.792Z,48.16
2022-08-05T15:38:34.387Z,48.16
2022-08-05T15:41:00.151Z,47.95
2022-08-05T15:43:20.388Z,48.24
2022-08-05T15:45:59.715Z,48.57
2022-08-05T15:48:30.157Z,48.82
2022-08-05T15:51:01.550Z,49.06
2022-08-05T15:53:38.234Z,49.17
2022-08-05T15:56:20.267Z,49.31
2022-08-05T15:58:49.216Z,49.49
2022-08-05T16:01:19.165Z,49.60
2022-08-05T16:03:50.894Z,49.69
2022-08-05T16:06:20.921Z,49.66
2022-08-05T16:08:53.621Z,49.52
2022-08-05T16:11:42.560Z,48.85
2022-08-05T16:14:17.317Z,48.42
2022-08-05T16:16:47.118Z,48.41
2022-08-05T16:19:25.569Z,48.19
2022-08-05T16:22:05.342Z,47.72
2022-08-05T16:24:40.153Z,47.42
2022-08-05T16:27:09.519Z,47.34
2022-08-05T16:29:38.053Z,47.17
2022-08-05T16:32:10.068Z,46.97
2022-08-05T16:34:42.632Z,46.88
2022-08-05T16:38:01.755Z,46.87
2022-08-05T16:40:29.246Z,46.91
2022-08-05T16:42:57.959Z,46.91
2022-08-05T16:46:06.067Z,46.80
2022-08-05T16:48:26.171Z,46.63
2022-08-05T16:51:02.518Z,46.37
2022-08-05T16:54:04.113Z,46.09
2022-08-05T16:56:31.239Z,45.76
2022-08-05T16:59:08.127Z,45.52
2022-08-05T17:01:52.785Z,45.25
2022-08-05T17:04:28.372Z,45.00
2022-08-05T17:07:03.106Z,44.72
2022-08-05T17:09:58.023Z,44.40
2022-08-05T17:12:51.598Z,43.87
2022-08-05T17:15:47.842Z,43.44
2022-08-05T17:18:16.615Z,43.12
2022-08-05T17:20:54.189Z,42.71
2022-08-05T17:24:03.036Z,42.17
2022-08-05T17:26:11.995Z,41.57
2022-08-05T17:28:43.344Z,40.97
2022-08-05T17:31:24.404Z,40.42
2022-08-05T17:34:05.623Z,39.80
2022-08-05T17:36:40.360Z,39.32
2022-08-05T17:39:23.932Z,38.85
2022-08-05T17:42:20.234Z,38.24
2022-08-05T17:44:50.303Z,37.51
2022-08-05T17:47:30.175Z,36.81
2022-08-05T17:50:10.765Z,36.12
2022-08-05T17:55:37.235Z,34.70
2022-08-05T17:58:21.626Z,34.12
2022-08-05T18:01:09.917Z,33.51
2022-08-05T18:03:58.695Z,33.04
2022-08-05T18:07:00.506Z,32.46
2022-08-05T18:09:58.883Z,31.94
2022-08-05T18:12:29.189Z,31.51
2022-08-05T18:14:58.628Z,31.16
2022-08-05T18:18:10.863Z,30.76
2022-08-05T18:20:44.349Z,30.42
2022-08-05T18:26:01.206Z,29.78
2022-08-05T18:31:23.761Z,29.18
2022-08-05T18:33:58.811Z,28.97
2022-08-05T18:36:43.692Z,28.76
2022-08-05T18:39:22.228Z,28.55
2022-08-05T18:42:11.574Z,28.33
2022-08-05T18:44:58.799Z,28.11
2022-08-05T18:47:28.928Z,27.92
2022-08-05T18:50:21.561Z,27.77
2022-08-05T18:53:17.576Z,27.57
2022-08-05T18:55:48.069Z,27.42
2022-08-05T18:58:29.145Z,27.29
2022-08-05T19:00:57.846Z,27.17
2022-08-05T19:06:34.138Z,26.98
2022-08-05T19:09:40.158Z,26.90
2022-08-05T19:12:10.603Z,26.84
2022-08-05T19:15:00.916Z,26.77
2022-08-05T19:18:08.218Z,26.68
2022-08-05T19:20:28.070Z,26.59
2022-08-05T19:23:02.582Z,26.48
2022-08-05T19:25:50.977Z,26.41
2022-08-05T19:28:34.264Z,26.33
2022-08-05T19:31:21.509Z,26.25
2022-08-05T19:33:56.392Z,26.21
2022-08-05T19:36:29.216Z,26.15
2022-08-05T19:39:07.255Z,26.10
2022-08-05T19:42:05.823Z,26.02
2022-08-05T19:44:29.215Z,26.00
2022-08-05T19:47:16.184Z,25.93
2022-08-05T19:49:46.207Z,25.86
2022-08-05T19:52:31.726Z,25.73
2022-08-05T20:00:32.239Z,25.34
2022-08-05T20:03:01.050Z,25.29
2022-08-05T20:05:50.051Z,25.15
2022-08-05T20:11:02.477Z,24.93
2022-08-05T20:13:58.634Z,24.84
2022-08-05T20:16:24.730Z,24.72
2022-08-05T20:21:43.434Z,24.55
2022-08-05T20:24:14.543Z,24.47
2022-08-05T20:26:44.586Z,24.37
2022-08-05T20:29:26.598Z,24.33
2022-08-05T20:31:58.327Z,24.26
2022-08-05T20:34:28.440Z,24.19
2022-08-05T20:36:56.914Z,24.13
2022-08-05T20:40:25.165Z,24.06
2022-08-05T20:46:07.024Z,23.92
2022-08-05T20:48:41.179Z,23.83
2022-08-05T20:51:16.348Z,23.72
2022-08-05T20:53:55.206Z,23.65
2022-08-05T20:56:29.799Z,23.61
2022-08-05T20:58:59.812Z,23.61
2022-08-05T21:01:37.382Z,23.56
2022-08-05T21:04:12.771Z,23.49
2022-08-05T21:06:45.549Z,23.40
2022-08-05T21:09:16.141Z,23.36
2022-08-05T21:12:06.623Z,23.25
2022-08-05T21:14:35.269Z,23.21
2022-08-05T21:17:05.069Z,23.11
2022-08-05T21:19:47.268Z,23.07
2022-08-05T21:22:28.867Z,23.05
2022-08-05T21:25:06.698Z,22.99
2022-08-05T21:27:52.580Z,22.89
2022-08-05T21:30:32.111Z,22.82
2022-08-05T21:33:11.281Z,22.79
2022-08-05T21:35:58.294Z,22.68
2022-08-05T21:38:28.104Z,22.61
2022-08-05T21:40:57.120Z,22.59
2022-08-05T21:43:26.356Z,22.53
2022-08-05T21:46:02.093Z,22.50
2022-08-05T21:48:32.667Z,22.45
2022-08-05T21:51:01.883Z,22.40
2022-08-05T21:53:30.304Z,22.32
2022-08-05T21:56:16.228Z,22.28
2022-08-05T21:58:58.082Z,22.15
2022-08-05T22:01:26.914Z,22.11
2022-08-05T22:04:02.025Z,22.05
2022-08-05T22:06:34.748Z,21.97
2022-08-05T22:09:13.898Z,21.90
2022-08-05T22:11:49.644Z,21.82
2022-08-05T22:14:33.885Z,21.70
2022-08-05T22:17:06.826Z,21.74
2022-08-05T22:19:57.535Z,21.62
2022-08-05T22:22:29.616Z,21.60
2022-08-05T22:25:27.784Z,21.61
2022-08-05T22:28:14.025Z,21.51
2022-08-05T22:30:56.200Z,21.49
2022-08-05T22:33:57.819Z,21.53
2022-08-05T22:36:27.466Z,21.52
2022-08-05T22:38:57.493Z,21.53
2022-08-05T22:42:10.687Z,21.56
2022-08-05T22:44:21.027Z,21.57
2022-08-05T22:46:51.069Z,21.55
2022-08-05T22:49:46.073Z,21.58
2022-08-05T22:52:15.443Z,21.56
2022-08-05T22:54:51.729Z,21.60
2022-08-05T22:57:20.076Z,21.58
2022-08-05T22:59:51.989Z,21.53
2022-08-05T23:02:29.756Z,21.48
2022-08-05T23:05:01.424Z,21.41
2022-08-05T23:07:45.163Z,21.30
2022-08-05T23:10:20.149Z,21.27
2022-08-05T23:12:54.569Z,21.18
2022-08-05T23:15:26.895Z,21.08
2022-08-05T23:18:02.434Z,21.07
2022-08-05T23:20:37.442Z,20.99
2022-08-05T23:23:08.364Z,20.98
2022-08-05T23:25:54.616Z,20.94
2022-08-05T23:28:29.373Z,20.92
2022-08-05T23:31:16.496Z,20.92
2022-08-05T23:34:06.221Z,20.85
2022-08-05T23:36:39.964Z,20.80
2022-08-05T23:39:23.942Z,20.78
2022-08-05T23:42:01.440Z,20.73
2022-08-05T23:44:32.498Z,20.67
2022-08-05T23:47:02.475Z,20.63
2022-08-05T23:49:47.491Z,20.62
2022-08-05T23:52:35.942Z,20.60
2022-08-05T23:55:08.986Z,20.54
2022-08-05T23:57:38.227Z,20.48
